Time;durP1;ratioP1;P1;durP2;ratioP2;P2;SDS_P1;SDS_P2;PMS_P1;PMS_P2;Temp;Humidity;BMP_temperature;BMP_pressure;BME280_temperature;BME280_humidity;BME280_pressure;Samples;Min_cycle;Max_cycle;Signal;HPM_P1;HPM_P2
2022/06/25 00:01:55;;;;;;;;;;;12.10;99.90;;;;;;5003533;28;19960;-73
2022/06/25 00:07:06;;;;;;;;;;;12.10;99.90;;;;;;5004512;28;20015;-73
2022/06/25 00:09:33;;;;;;;;;;;12.20;99.90;;;;;;5002927;28;19949;-73
2022/06/25 00:14:44;;;;;;;;;;;12.30;99.90;;;;;;5005690;28;19911;-73
2022/06/25 00:17:11;;;;;;;;;;;12.30;99.90;;;;;;5005364;28;19913;-72
2022/06/25 00:19:38;;;;;;;;;;;12.30;99.90;;;;;;5003658;28;19912;-72
2022/06/25 00:22:04;;;;;;;;;;;12.40;99.90;;;;;;5004228;28;20016;-72
2022/06/25 00:24:31;;;;;;;;;;;12.40;99.90;;;;;;5005110;28;19952;-73
2022/06/25 00:26:58;;;;;;;;;;;12.50;99.90;;;;;;5011748;28;19967;-72
2022/06/25 00:29:24;;;;;;;;;;;12.50;99.90;;;;;;5014103;28;19954;-72
2022/06/25 00:31:51;;;;;;;;;;;12.50;99.90;;;;;;5014445;28;19975;-72
2022/06/25 00:34:17;;;;;;;;;;;12.50;99.90;;;;;;5014533;28;19909;-72
2022/06/25 00:36:44;;;;;;;;;;;12.50;99.90;;;;;;5014354;28;19909;-72
2022/06/25 00:39:11;;;;;;;;;;;12.50;99.90;;;;;;5014449;28;19912;-72
2022/06/25 00:41:37;;;;;;;;;;;12.60;99.90;;;;;;5014490;28;20281;-72
2022/06/25 00:44:08;;;;;;;;;;;12.60;99.90;;;;;;5013369;28;20004;-72
2022/06/25 00:46:34;;;;;;;;;;;12.60;99.90;;;;;;5014134;28;19959;-72
2022/06/25 00:49:01;;;;;;;;;;;12.60;99.90;;;;;;5013732;28;19905;-72
2022/06/25 00:51:31;;;;;;;;;;;12.60;99.90;;;;;;5014205;28;19911;-71
2022/06/25 00:54:03;;;;;;;;;;;12.70;99.90;;;;;;5014083;28;19937;-73
2022/06/25 00:56:32;;;;;;;;;;;12.70;99.90;;;;;;5013955;28;19909;-71
2022/06/25 00:59:02;;;;;;;;;;;12.80;99.90;;;;;;5013882;28;20366;-73
2022/06/25 01:01:30;;;;;;;;;;;12.90;99.90;;;;;;5013809;28;19917;-72
2022/06/25 01:03:56;;;;;;;;;;;12.90;99.90;;;;;;5012694;28;19913;-72
2022/06/25 01:06:23;;;;;;;;;;;12.90;99.90;;;;;;5002862;28;19914;-72
2022/06/25 01:08:50;;;;;;;;;;;12.90;99.90;;;;;;5000868;28;20430;-71
2022/06/25 01:11:17;;;;;;;;;;;12.90;99.90;;;;;;5004346;28;20385;-70
2022/06/25 01:13:44;;;;;;;;;;;13.00;99.90;;;;;;5004065;28;19968;-71
2022/06/25 01:16:10;;;;;;;;;;;13.00;99.90;;;;;;5002382;28;19912;-72
2022/06/25 01:18:37;;;;;;;;;;;13.00;99.90;;;;;;5003869;28;19936;-72
2022/06/25 01:21:03;;;;;;;;;;;13.00;99.90;;;;;;5003933;28;19906;-72
2022/06/25 01:23:31;;;;;;;;;;;13.10;99.90;;;;;;5004588;28;19957;-72
2022/06/25 01:25:57;;;;;;;;;;;13.20;99.90;;;;;;5003122;28;19963;-72
2022/06/25 01:28:24;;;;;;;;;;;13.20;99.90;;;;;;5003327;28;19992;-72
2022/06/25 01:30:51;;;;;;;;;;;13.20;99.90;;;;;;5004711;28;20274;-72
2022/06/25 01:33:17;;;;;;;;;;;13.30;99.90;;;;;;5002422;28;19909;-72
2022/06/25 01:35:44;;;;;;;;;;;13.30;99.90;;;;;;5003195;28;19905;-72
2022/06/25 01:38:10;;;;;;;;;;;13.40;99.90;;;;;;5004659;28;19913;-72
2022/06/25 01:40:38;;;;;;;;;;;13.50;99.90;;;;;;5003054;28;19917;-72
2022/06/25 01:43:04;;;;;;;;;;;13.60;99.90;;;;;;5008610;28;19924;-72
2022/06/25 01:45:35;;;;;;;;;;;13.60;99.90;;;;;;5008698;28;19906;-72
2022/06/25 01:48:02;;;;;;;;;;;13.80;99.90;;;;;;5009103;28;20235;-71
2022/06/25 01:50:29;;;;;;;;;;;13.90;99.90;;;;;;5008210;28;19906;-71
2022/06/25 01:52:55;;;;;;;;;;;13.90;99.90;;;;;;4996505;28;19905;-71
2022/06/25 01:55:22;;;;;;;;;;;13.90;99.90;;;;;;4996465;28;19941;-71
2022/06/25 01:57:49;;;;;;;;;;;13.90;99.90;;;;;;4997516;28;20278;-72
2022/06/25 02:00:18;;;;;;;;;;;13.90;99.90;;;;;;4996845;28;20003;-72
2022/06/25 02:02:45;;;;;;;;;;;14.00;99.90;;;;;;4995543;28;19914;-72
2022/06/25 02:05:13;;;;;;;;;;;14.10;99.90;;;;;;5005859;28;19905;-72
2022/06/25 02:07:40;;;;;;;;;;;14.10;99.90;;;;;;4996422;28;19949;-72
2022/06/25 02:10:07;;;;;;;;;;;14.20;99.90;;;;;;4996924;28;19905;-72
2022/06/25 02:12:34;;;;;;;;;;;14.30;99.90;;;;;;5000275;28;19906;-72
2022/06/25 02:15:01;;;;;;;;;;;14.30;99.90;;;;;;5002910;28;20320;-72
2022/06/25 02:17:29;;;;;;;;;;;14.40;99.90;;;;;;5004055;28;19952;-72
2022/06/25 02:19:55;;;;;;;;;;;14.40;99.90;;;;;;5002313;28;19906;-72
2022/06/25 02:22:22;;;;;;;;;;;14.50;99.90;;;;;;5002987;28;19913;-72
2022/06/25 02:24:49;;;;;;;;;;;14.50;99.90;;;;;;5003938;28;19912;-72
2022/06/25 02:27:15;;;;;;;;;;;14.50;99.90;;;;;;5002045;28;20281;-72
2022/06/25 02:29:42;;;;;;;;;;;14.50;99.90;;;;;;5006216;28;20006;-72
2022/06/25 02:32:08;;;;;;;;;;;14.50;99.90;;;;;;5007580;28;19913;-72
2022/06/25 02:34:35;;;;;;;;;;;14.60;99.90;;;;;;5005507;28;19993;-72
2022/06/25 02:37:02;;;;;;;;;;;14.60;99.90;;;;;;5006334;28;19905;-72
2022/06/25 02:39:28;;;;;;;;;;;14.60;99.90;;;;;;5006891;28;19906;-72
2022/06/25 02:41:55;;;;;;;;;;;14.70;99.90;;;;;;5005403;28;19914;-72
2022/06/25 02:44:22;;;;;;;;;;;14.70;99.90;;;;;;5006237;28;19905;-72
2022/06/25 02:46:48;;;;;;;;;;;14.70;99.90;;;;;;5007233;28;19905;-73
2022/06/25 02:49:15;;;;;;;;;;;14.70;99.90;;;;;;5004713;28;19905;-72
2022/06/25 02:51:42;;;;;;;;;;;14.80;99.90;;;;;;5005543;28;20498;-71
2022/06/25 02:54:10;;;;;;;;;;;14.80;99.90;;;;;;5007046;28;19959;-72
2022/06/25 02:59:22;;;;;;;;;;;14.90;99.90;;;;;;5006014;28;19913;-72
2022/06/25 03:01:49;;;;;;;;;;;14.90;99.90;;;;;;5005019;28;19952;-72
2022/06/25 03:04:16;;;;;;;;;;;14.90;99.90;;;;;;5005201;28;19905;-72
2022/06/25 03:06:43;;;;;;;;;;;14.90;99.90;;;;;;5005843;28;19917;-72
2022/06/25 03:09:10;;;;;;;;;;;14.90;99.90;;;;;;5005214;28;19917;-72
2022/06/25 03:11:37;;;;;;;;;;;15.00;99.90;;;;;;5004746;28;20338;-71
2022/06/25 03:14:06;;;;;;;;;;;15.00;99.90;;;;;;5002624;28;19909;-72
2022/06/25 03:16:36;;;;;;;;;;;15.20;99.90;;;;;;5005339;28;19909;-73
2022/06/25 03:19:03;;;;;;;;;;;15.30;99.90;;;;;;5003695;28;19912;-72
2022/06/25 03:21:30;;;;;;;;;;;15.50;99.90;;;;;;5004133;28;20012;-72
2022/06/25 03:23:57;;;;;;;;;;;15.60;99.90;;;;;;5006010;28;19912;-72
2022/06/25 03:26:24;;;;;;;;;;;15.60;99.90;;;;;;5005886;28;19906;-72
2022/06/25 03:28:51;;;;;;;;;;;15.70;99.90;;;;;;5015895;28;19912;-72
2022/06/25 03:31:17;;;;;;;;;;;15.60;99.90;;;;;;5015877;28;19913;-71
2022/06/25 03:33:44;;;;;;;;;;;15.60;99.90;;;;;;5016005;28;19905;-72
2022/06/25 03:36:11;;;;;;;;;;;15.70;99.90;;;;;;5015670;28;19996;-72
2022/06/25 03:38:38;;;;;;;;;;;15.60;99.90;;;;;;5015531;28;19906;-72
2022/06/25 03:43:49;;;;;;;;;;;15.60;99.90;;;;;;5015995;28;19917;-71
2022/06/25 03:46:16;;;;;;;;;;;15.60;99.90;;;;;;5006767;28;19909;-72
2022/06/25 03:48:43;;;;;;;;;;;15.60;99.90;;;;;;5004087;28;20417;-70
2022/06/25 03:51:10;;;;;;;;;;;15.60;99.90;;;;;;5005642;28;20283;-72
2022/06/25 03:56:24;;;;;;;;;;;15.50;99.90;;;;;;5002280;28;19928;-72
2022/06/25 03:58:51;;;;;;;;;;;15.50;99.90;;;;;;5005611;28;19905;-71
2022/06/25 04:01:18;;;;;;;;;;;15.50;99.90;;;;;;5005361;28;19913;-71
2022/06/25 04:03:45;;;;;;;;;;;15.40;99.90;;;;;;5004142;28;19952;-71
2022/06/25 04:06:12;;;;;;;;;;;15.40;99.90;;;;;;5005259;28;19909;-71
2022/06/25 04:08:39;;;;;;;;;;;15.40;99.90;;;;;;5005427;28;19905;-71
2022/06/25 04:11:06;;;;;;;;;;;15.50;99.90;;;;;;5003755;28;20314;-71
2022/06/25 04:13:32;;;;;;;;;;;15.40;99.90;;;;;;5004885;28;20351;-71
2022/06/25 04:15:59;;;;;;;;;;;15.50;99.90;;;;;;5005366;28;19906;-72
2022/06/25 04:18:26;;;;;;;;;;;15.40;99.90;;;;;;5003583;28;19961;-71
2022/06/25 04:20:53;;;;;;;;;;;15.30;99.90;;;;;;5004828;28;19996;-71
2022/06/25 04:23:20;;;;;;;;;;;15.30;99.90;;;;;;5003992;28;19913;-72
2022/06/25 04:25:47;;;;;;;;;;;15.20;99.90;;;;;;5003271;28;19952;-72
2022/06/25 04:30:59;;;;;;;;;;;15.10;99.90;;;;;;5005300;28;19913;-72
2022/06/25 04:33:25;;;;;;;;;;;15.10;99.90;;;;;;5003249;28;19952;-71
2022/06/25 04:35:52;;;;;;;;;;;15.00;99.90;;;;;;5004450;28;20425;-71
2022/06/25 04:38:19;;;;;;;;;;;15.00;99.90;;;;;;5004925;28;19905;-71
2022/06/25 04:40:46;;;;;;;;;;;14.90;99.90;;;;;;5003167;28;19906;-71
2022/06/25 04:43:13;;;;;;;;;;;14.90;99.90;;;;;;5004457;28;19959;-71
2022/06/25 04:45:40;;;;;;;;;;;14.90;99.90;;;;;;5004743;28;19910;-71
2022/06/25 04:48:07;;;;;;;;;;;14.90;99.90;;;;;;5002293;28;20286;-72
2022/06/25 04:50:33;;;;;;;;;;;14.90;99.90;;;;;;5005497;28;19917;-72
2022/06/25 04:53:00;;;;;;;;;;;14.90;99.90;;;;;;5010552;28;19913;-72
2022/06/25 04:55:27;;;;;;;;;;;14.90;99.90;;;;;;5009926;28;20326;-72
2022/06/25 04:57:54;;;;;;;;;;;14.80;99.90;;;;;;5011509;28;20401;-72
2022/06/25 05:00:21;;;;;;;;;;;14.90;99.90;;;;;;5006964;28;19936;-72
2022/06/25 05:02:48;;;;;;;;;;;14.90;99.90;;;;;;5003092;28;19917;-72
2022/06/25 05:05:14;;;;;;;;;;;14.80;99.90;;;;;;5005284;28;20331;-72
2022/06/25 05:07:41;;;;;;;;;;;14.80;99.90;;;;;;5005627;28;19917;-72
2022/06/25 05:10:08;;;;;;;;;;;14.80;99.90;;;;;;5003062;28;19905;-72
2022/06/25 05:15:21;;;;;;;;;;;14.80;99.90;;;;;;5007187;28;20061;-72
2022/06/25 05:17:48;;;;;;;;;;;14.80;99.90;;;;;;5001224;28;19909;-72
2022/06/25 05:20:15;;;;;;;;;;;15.00;99.90;;;;;;5001704;28;19905;-72
2022/06/25 05:22:42;;;;;;;;;;;15.10;99.90;;;;;;5004063;28;19922;-72
2022/06/25 05:25:09;;;;;;;;;;;15.20;99.90;;;;;;5002509;28;19914;-71
2022/06/25 05:27:36;;;;;;;;;;;15.20;99.90;;;;;;5002098;28;19914;-72
2022/06/25 05:30:04;;;;;;;;;;;15.20;99.90;;;;;;5001074;28;20021;-73
2022/06/25 05:32:31;;;;;;;;;;;15.20;99.90;;;;;;5002423;28;19928;-71
2022/06/25 05:34:58;;;;;;;;;;;15.30;99.90;;;;;;5001816;28;19910;-72
2022/06/25 05:37:25;;;;;;;;;;;15.50;99.90;;;;;;5000376;28;19905;-72
2022/06/25 05:39:51;;;;;;;;;;;15.50;99.90;;;;;;5002838;28;20355;-71
2022/06/25 05:42:20;;;;;;;;;;;15.60;99.90;;;;;;5000676;28;19913;-72
2022/06/25 05:44:47;;;;;;;;;;;15.60;99.90;;;;;;5002757;28;19905;-72
2022/06/25 05:47:14;;;;;;;;;;;15.60;99.90;;;;;;5001640;28;19906;-72
2022/06/25 05:49:41;;;;;;;;;;;15.60;99.90;;;;;;5001228;28;19914;-72
2022/06/25 05:52:08;;;;;;;;;;;15.50;99.90;;;;;;5003404;28;20000;-73
2022/06/25 05:54:35;;;;;;;;;;;15.50;99.90;;;;;;5002296;28;19951;-72
2022/06/25 05:57:01;;;;;;;;;;;15.50;99.90;;;;;;5003521;28;19929;-72
2022/06/25 05:59:28;;;;;;;;;;;15.40;99.90;;;;;;5002464;28;19985;-72
2022/06/25 06:01:55;;;;;;;;;;;15.40;99.90;;;;;;5003237;28;20271;-72
2022/06/25 06:04:22;;;;;;;;;;;15.30;99.90;;;;;;5007263;28;19906;-72
2022/06/25 06:06:52;;;;;;;;;;;15.20;99.90;;;;;;5006098;28;20286;-74
2022/06/25 06:09:19;;;;;;;;;;;15.20;99.90;;;;;;5003952;28;19910;-73
2022/06/25 06:11:46;;;;;;;;;;;15.20;99.90;;;;;;5008663;28;20334;-72
2022/06/25 06:14:13;;;;;;;;;;;15.10;99.90;;;;;;5015691;28;19905;-72
2022/06/25 06:16:40;;;;;;;;;;;15.00;99.90;;;;;;5015077;28;20380;-72
2022/06/25 06:19:12;;;;;;;;;;;15.00;99.90;;;;;;5015096;28;20381;-72
2022/06/25 06:21:42;;;;;;;;;;;15.00;99.90;;;;;;5013769;28;19916;-72
2022/06/25 06:24:09;;;;;;;;;;;14.90;99.90;;;;;;5015406;28;20412;-72
2022/06/25 06:26:35;;;;;;;;;;;14.90;99.90;;;;;;5015376;28;20394;-71
2022/06/25 06:29:02;;;;;;;;;;;14.90;99.90;;;;;;5016374;28;19989;-71
2022/06/25 06:31:29;;;;;;;;;;;14.90;99.90;;;;;;5014485;28;20043;-71
2022/06/25 06:33:57;;;;;;;;;;;14.80;99.90;;;;;;4997562;28;19913;-71
2022/06/25 06:36:24;;;;;;;;;;;14.80;99.90;;;;;;4997449;28;20351;-71
2022/06/25 06:38:50;;;;;;;;;;;14.70;99.90;;;;;;5004999;28;19992;-71
2022/06/25 06:41:17;;;;;;;;;;;14.70;99.90;;;;;;5016788;28;20007;-71
2022/06/25 06:43:44;;;;;;;;;;;14.60;99.90;;;;;;5017073;28;20282;-72
2022/06/25 06:46:14;;;;;;;;;;;14.50;99.90;;;;;;5016736;28;19944;-72
2022/06/25 06:48:41;;;;;;;;;;;14.50;99.90;;;;;;5012773;28;19909;-71
2022/06/25 06:51:08;;;;;;;;;;;14.50;99.90;;;;;;5012808;28;20465;-72
2022/06/25 06:53:38;;;;;;;;;;;14.50;99.90;;;;;;5015085;28;20040;-72
2022/06/25 06:56:04;;;;;;;;;;;14.40;99.90;;;;;;5014317;28;20234;-72
2022/06/25 06:58:34;;;;;;;;;;;14.40;99.90;;;;;;5014420;28;20325;-72
2022/06/25 07:01:01;;;;;;;;;;;14.40;99.90;;;;;;5014378;28;19952;-71
2022/06/25 07:03:28;;;;;;;;;;;14.40;99.90;;;;;;5014595;28;19913;-71
2022/06/25 07:05:55;;;;;;;;;;;14.30;99.90;;;;;;5014244;28;19909;-72
2022/06/25 07:08:26;;;;;;;;;;;14.30;99.90;;;;;;5014519;28;19906;-73
2022/06/25 07:10:53;;;;;;;;;;;14.20;99.90;;;;;;5014648;28;20363;-71
2022/06/25 07:13:20;;;;;;;;;;;14.20;99.90;;;;;;5015335;28;19905;-71
2022/06/25 07:15:47;;;;;;;;;;;14.10;99.90;;;;;;5015473;28;19906;-71
2022/06/25 07:18:14;;;;;;;;;;;14.10;99.90;;;;;;5016566;28;19913;-71
2022/06/25 07:20:40;;;;;;;;;;;14.00;99.90;;;;;;5016037;28;19996;-71
2022/06/25 07:23:07;;;;;;;;;;;14.00;99.90;;;;;;5016095;28;19968;-72
2022/06/25 07:25:34;;;;;;;;;;;13.90;99.90;;;;;;5016015;28;20351;-71
2022/06/25 07:28:01;;;;;;;;;;;13.90;99.90;;;;;;5014832;28;19905;-71
2022/06/25 07:30:28;;;;;;;;;;;13.80;99.90;;;;;;5015491;28;20350;-71
2022/06/25 07:32:55;;;;;;;;;;;13.80;99.90;;;;;;5015576;28;20409;-71
2022/06/25 07:35:22;;;;;;;;;;;13.80;99.90;;;;;;5015343;28;20361;-71
2022/06/25 07:37:49;;;;;;;;;;;13.70;99.90;;;;;;5014144;28;19917;-71
2022/06/25 07:40:16;;;;;;;;;;;13.70;99.90;;;;;;5012219;28;20270;-72
2022/06/25 07:42:45;;;;;;;;;;;13.70;99.90;;;;;;5012564;28;20377;-72
2022/06/25 07:45:12;;;;;;;;;;;13.70;99.90;;;;;;5012236;28;19914;-71
2022/06/25 07:47:45;;;;;;;;;;;13.70;99.90;;;;;;5012027;28;20281;-71
2022/06/25 07:52:56;;;;;;;;;;;13.60;99.90;;;;;;5010188;28;19912;-71
2022/06/25 07:55:23;;;;;;;;;;;13.60;99.90;;;;;;5009449;28;19912;-71
2022/06/25 07:57:50;;;;;;;;;;;13.50;99.90;;;;;;5004588;28;20358;-72
2022/06/25 08:00:17;;;;;;;;;;;13.50;99.90;;;;;;5009817;28;19913;-71
2022/06/25 08:02:44;;;;;;;;;;;13.40;99.90;;;;;;5014540;28;19913;-72
2022/06/25 08:05:11;;;;;;;;;;;13.40;99.90;;;;;;5015050;28;19905;-72
2022/06/25 08:07:38;;;;;;;;;;;13.40;99.90;;;;;;5014220;28;19943;-72
2022/06/25 08:10:05;;;;;;;;;;;13.40;99.90;;;;;;5013974;28;19905;-72
2022/06/25 08:12:32;;;;;;;;;;;13.40;99.90;;;;;;5013309;28;20286;-71
2022/06/25 08:14:59;;;;;;;;;;;13.30;99.90;;;;;;5010097;28;19906;-72
2022/06/25 08:17:26;;;;;;;;;;;13.30;99.90;;;;;;5012214;28;19905;-73
2022/06/25 08:19:53;;;;;;;;;;;13.20;99.90;;;;;;5005277;28;19909;-72
2022/06/25 08:22:20;;;;;;;;;;;13.20;99.90;;;;;;5009978;28;19936;-73
2022/06/25 08:24:47;;;;;;;;;;;13.20;99.90;;;;;;5006326;28;20271;-71
2022/06/25 08:27:14;;;;;;;;;;;13.20;99.90;;;;;;5008492;28;19905;-71
2022/06/25 08:29:40;;;;;;;;;;;13.20;99.90;;;;;;5009482;28;19999;-71
2022/06/25 08:32:08;;;;;;;;;;;13.20;99.90;;;;;;5013835;28;19913;-71
2022/06/25 08:34:34;;;;;;;;;;;13.20;99.90;;;;;;5011016;28;19909;-72
2022/06/25 08:37:01;;;;;;;;;;;13.20;99.90;;;;;;5012209;28;20346;-72
2022/06/25 08:39:29;;;;;;;;;;;13.20;99.90;;;;;;5013008;28;20036;-71
2022/06/25 08:41:55;;;;;;;;;;;13.20;99.90;;;;;;5008322;28;19924;-71
2022/06/25 08:44:22;;;;;;;;;;;13.20;99.90;;;;;;5012968;28;20358;-71
2022/06/25 08:46:51;;;;;;;;;;;13.20;99.90;;;;;;5012990;28;21030;-72
2022/06/25 08:49:19;;;;;;;;;;;13.10;99.90;;;;;;5008748;28;19909;-72
2022/06/25 08:51:46;;;;;;;;;;;13.10;99.90;;;;;;5011373;28;19905;-71
2022/06/25 08:54:14;;;;;;;;;;;13.10;99.90;;;;;;5009723;28;19917;-72
2022/06/25 08:56:41;;;;;;;;;;;13.10;99.90;;;;;;5011785;28;19906;-71
2022/06/25 08:59:08;;;;;;;;;;;13.10;99.90;;;;;;5010576;28;19916;-71
2022/06/25 09:01:35;;;;;;;;;;;13.00;99.90;;;;;;5012317;28;19935;-72
2022/06/25 09:04:02;;;;;;;;;;;13.00;99.90;;;;;;5012583;28;19905;-72
2022/06/25 09:06:29;;;;;;;;;;;13.00;99.90;;;;;;5012625;28;19913;-71
2022/06/25 09:09:11;;;;;;;;;;;13.00;99.90;;;;;;5008171;28;19952;-72
2022/06/25 09:11:52;;;;;;;;;;;12.90;99.90;;;;;;5008966;28;19905;-72
2022/06/25 09:14:20;;;;;;;;;;;12.90;99.90;;;;;;5006879;28;19948;-72
2022/06/25 09:16:57;;;;;;;;;;;12.90;99.90;;;;;;5011844;28;19909;-72
2022/06/25 09:19:34;;;;;;;;;;;12.90;99.90;;;;;;5012019;28;19960;-71
2022/06/25 09:22:03;;;;;;;;;;;12.90;99.90;;;;;;5011945;28;19920;-71
2022/06/25 09:24:40;;;;;;;;;;;12.90;99.90;;;;;;5010455;28;19913;-71
2022/06/25 09:27:07;;;;;;;;;;;12.90;99.90;;;;;;5010707;28;20035;-71
2022/06/25 09:29:38;;;;;;;;;;;12.90;99.90;;;;;;5009407;28;19913;-71
2022/06/25 09:32:05;;;;;;;;;;;12.80;99.90;;;;;;5011482;28;20373;-71
2022/06/25 09:34:36;;;;;;;;;;;12.80;99.90;;;;;;5010628;28;19912;-71
2022/06/25 09:37:21;;;;;;;;;;;12.80;99.90;;;;;;5011325;28;19905;-71
2022/06/25 09:39:48;;;;;;;;;;;12.70;99.90;;;;;;5015374;28;19916;-71
2022/06/25 09:42:26;;;;;;;;;;;12.70;99.90;;;;;;5015692;28;19913;-71
2022/06/25 09:45:11;;;;;;;;;;;12.60;99.90;;;;;;5015242;28;20025;-71
2022/06/25 09:47:38;;;;;;;;;;;12.50;99.90;;;;;;5015637;28;19909;-70
2022/06/25 09:50:10;;;;;;;;;;;12.40;99.90;;;;;;5015930;28;19960;-71
2022/06/25 09:52:38;;;;;;;;;;;12.40;99.90;;;;;;5015637;28;19905;-71
2022/06/25 09:55:05;;;;;;;;;;;12.30;99.90;;;;;;5012983;28;19960;-71
2022/06/25 09:57:32;;;;;;;;;;;12.30;99.90;;;;;;5015091;28;19952;-71
2022/06/25 10:00:00;;;;;;;;;;;12.30;99.90;;;;;;5014418;28;19913;-71
2022/06/25 10:02:28;;;;;;;;;;;12.20;99.90;;;;;;5015801;28;19917;-71
2022/06/25 10:04:59;;;;;;;;;;;12.30;99.90;;;;;;5013513;28;19988;-71
2022/06/25 10:10:14;;;;;;;;;;;12.20;99.90;;;;;;5015216;28;19917;-72
2022/06/25 10:12:41;;;;;;;;;;;12.20;99.90;;;;;;5014001;28;19905;-72
2022/06/25 10:15:09;;;;;;;;;;;12.30;99.90;;;;;;5013082;28;19948;-72
2022/06/25 10:17:36;;;;;;;;;;;12.20;99.90;;;;;;5014192;28;19906;-72
2022/06/25 10:20:03;;;;;;;;;;;12.30;99.90;;;;;;5013408;28;19987;-72
2022/06/25 10:22:30;;;;;;;;;;;12.30;99.90;;;;;;5014586;28;19933;-73
2022/06/25 10:24:59;;;;;;;;;;;12.30;99.90;;;;;;5014769;28;19909;-73
2022/06/25 10:27:25;;;;;;;;;;;12.30;99.90;;;;;;5016026;28;20728;-72
2022/06/25 10:29:54;;;;;;;;;;;12.30;99.90;;;;;;5013575;28;19989;-72
2022/06/25 10:32:21;;;;;;;;;;;12.30;99.90;;;;;;5013729;28;19928;-72
2022/06/25 10:34:54;;;;;;;;;;;12.20;99.90;;;;;;5012751;28;19909;-72
2022/06/25 10:37:21;;;;;;;;;;;12.20;99.90;;;;;;5012917;28;20258;-72
2022/06/25 10:39:49;;;;;;;;;;;12.10;99.90;;;;;;5015073;28;20354;-72
2022/06/25 10:45:06;;;;;;;;;;;12.10;99.90;;;;;;5011557;28;19913;-72
2022/06/25 10:47:40;;;;;;;;;;;12.10;99.90;;;;;;5013169;28;20341;-73
2022/06/25 10:50:23;;;;;;;;;;;12.10;99.90;;;;;;5012393;28;19992;-73
2022/06/25 10:53:08;;;;;;;;;;;12.00;99.90;;;;;;5014021;28;19905;-74
2022/06/25 10:55:36;;;;;;;;;;;11.90;99.90;;;;;;5013439;28;19909;-74
2022/06/25 10:58:21;;;;;;;;;;;11.90;99.90;;;;;;5013762;28;19913;-74
2022/06/25 11:00:52;;;;;;;;;;;11.90;99.90;;;;;;5013820;28;19909;-74
2022/06/25 11:03:28;;;;;;;;;;;11.80;99.90;;;;;;5013699;28;19975;-74
2022/06/25 11:05:59;;;;;;;;;;;11.80;99.90;;;;;;5012979;28;19909;-74
2022/06/25 11:08:33;;;;;;;;;;;11.80;99.90;;;;;;5013510;28;19916;-74
2022/06/25 11:11:00;;;;;;;;;;;11.80;99.90;;;;;;5013804;28;19912;-74
2022/06/25 11:13:27;;;;;;;;;;;11.80;99.90;;;;;;5014748;28;19952;-73
2022/06/25 11:15:54;;;;;;;;;;;11.80;99.90;;;;;;5013524;28;19959;-74
2022/06/25 11:18:21;;;;;;;;;;;11.70;99.90;;;;;;5013386;28;19912;-73
2022/06/25 11:20:47;;;;;;;;;;;11.70;99.90;;;;;;5014519;28;19945;-73
2022/06/25 11:23:15;;;;;;;;;;;11.70;99.90;;;;;;5011615;28;19914;-74
2022/06/25 11:28:52;;;;;;;;;;;11.60;99.90;;;;;;5013554;28;19912;-74
2022/06/25 11:31:20;;;;;;;;;;;11.60;99.90;;;;;;5014272;28;19905;-73
2022/06/25 11:33:48;;;;;;;;;;;11.50;99.90;;;;;;5006669;28;20381;-73
2022/06/25 11:36:15;;;;;;;;;;;11.50;99.90;;;;;;5009948;28;19924;-73
2022/06/25 11:38:50;;;;;;;;;;;11.50;99.90;;;;;;5012846;28;19905;-73
2022/06/25 11:41:28;;;;;;;;;;;11.50;99.90;;;;;;5013299;28;21400;-73
2022/06/25 11:43:55;;;;;;;;;;;11.40;99.90;;;;;;5012624;28;20315;-73
2022/06/25 11:46:22;;;;;;;;;;;11.40;99.90;;;;;;5013832;28;19906;-73
2022/06/25 11:48:50;;;;;;;;;;;11.40;99.90;;;;;;5013993;28;19912;-74
2022/06/25 11:51:26;;;;;;;;;;;11.40;99.90;;;;;;5011590;28;20267;-73
2022/06/25 11:53:53;;;;;;;;;;;11.40;99.90;;;;;;5009683;28;19906;-73
2022/06/25 11:56:20;;;;;;;;;;;11.30;99.90;;;;;;5014312;28;19912;-73
2022/06/25 11:58:47;;;;;;;;;;;11.30;99.90;;;;;;5012484;28;20313;-74
2022/06/25 12:01:14;;;;;;;;;;;11.20;99.90;;;;;;5012475;28;20380;-73
2022/06/25 12:03:41;;;;;;;;;;;11.20;99.90;;;;;;5013229;28;19997;-74
2022/06/25 12:06:10;;;;;;;;;;;11.10;99.90;;;;;;5011706;28;19924;-73
2022/06/25 12:08:37;;;;;;;;;;;11.10;99.90;;;;;;5013017;28;19912;-73
2022/06/25 12:11:03;;;;;;;;;;;11.10;99.90;;;;;;5014227;28;19909;-74
2022/06/25 12:13:31;;;;;;;;;;;11.10;99.90;;;;;;5010151;28;19906;-73
2022/06/25 12:15:58;;;;;;;;;;;11.10;99.90;;;;;;5012619;28;20000;-73
2022/06/25 12:18:39;;;;;;;;;;;11.10;99.90;;;;;;5009892;28;19905;-74
2022/06/25 12:21:06;;;;;;;;;;;11.00;99.90;;;;;;5012723;28;20321;-72
2022/06/25 12:23:51;;;;;;;;;;;11.10;99.90;;;;;;5012539;28;19971;-74
2022/06/25 12:26:27;;;;;;;;;;;11.10;99.90;;;;;;5013327;28;19909;-73
2022/06/25 12:29:14;;;;;;;;;;;11.00;99.90;;;;;;5010764;28;19929;-73
2022/06/25 12:31:42;;;;;;;;;;;11.00;99.90;;;;;;5012923;28;20309;-74
2022/06/25 12:34:09;;;;;;;;;;;11.00;99.90;;;;;;5008649;28;19956;-74
2022/06/25 12:36:37;;;;;;;;;;;11.00;99.90;;;;;;5011282;28;19905;-74
2022/06/25 12:39:22;;;;;;;;;;;11.00;99.90;;;;;;5009383;28;20381;-73
2022/06/25 12:41:49;;;;;;;;;;;11.00;99.90;;;;;;5012043;28;19917;-74
2022/06/25 12:44:17;;;;;;;;;;;10.90;99.90;;;;;;5012557;28;20247;-73
2022/06/25 12:46:57;;;;;;;;;;;10.90;99.90;;;;;;5012343;28;19905;-71
2022/06/25 12:49:24;;;;;;;;;;;10.90;99.90;;;;;;5010919;28;19905;-74
2022/06/25 12:51:51;;;;;;;;;;;10.90;99.90;;;;;;5009085;28;20280;-72
2022/06/25 12:54:18;;;;;;;;;;;10.90;99.90;;;;;;5010583;28;19968;-72
2022/06/25 12:56:51;;;;;;;;;;;10.90;99.90;;;;;;5009082;28;19905;-72
2022/06/25 12:59:18;;;;;;;;;;;10.90;99.90;;;;;;5010818;28;20251;-72
2022/06/25 13:01:45;;;;;;;;;;;10.90;99.90;;;;;;5009557;28;19957;-71
2022/06/25 13:04:12;;;;;;;;;;;10.90;99.90;;;;;;5008894;28;20004;-74
2022/06/25 13:06:39;;;;;;;;;;;10.90;99.90;;;;;;5011077;28;19922;-72
2022/06/25 13:09:06;;;;;;;;;;;10.90;99.90;;;;;;5012438;28;19905;-72
2022/06/25 13:11:32;;;;;;;;;;;10.80;99.90;;;;;;5012005;28;19952;-73
2022/06/25 13:13:59;;;;;;;;;;;10.80;99.90;;;;;;5010440;28;19905;-72
2022/06/25 13:16:26;;;;;;;;;;;10.80;99.90;;;;;;5010816;28;20473;-73
2022/06/25 13:18:53;;;;;;;;;;;10.80;99.90;;;;;;5008934;28;19905;-72
2022/06/25 13:21:20;;;;;;;;;;;10.80;99.90;;;;;;5011443;28;20358;-72
2022/06/25 13:23:48;;;;;;;;;;;10.80;99.90;;;;;;5009862;28;19914;-73
2022/06/25 13:26:14;;;;;;;;;;;10.80;99.90;;;;;;5011704;28;19999;-72
2022/06/25 13:28:41;;;;;;;;;;;10.70;99.90;;;;;;5009275;28;19963;-71
2022/06/25 13:31:08;;;;;;;;;;;10.80;99.90;;;;;;5010514;28;19953;-72
2022/06/25 13:33:35;;;;;;;;;;;10.80;99.90;;;;;;5012708;28;19906;-72
2022/06/25 13:36:02;;;;;;;;;;;10.80;99.90;;;;;;5012881;28;19912;-72
2022/06/25 13:38:29;;;;;;;;;;;10.80;99.90;;;;;;5010063;28;19910;-72
2022/06/25 13:40:56;;;;;;;;;;;10.80;99.90;;;;;;5011825;28;19905;-72
2022/06/25 13:43:23;;;;;;;;;;;10.70;99.90;;;;;;5011642;28;19918;-72
2022/06/25 13:45:49;;;;;;;;;;;10.70;99.90;;;;;;5012714;28;19906;-73
2022/06/25 13:48:16;;;;;;;;;;;10.70;99.90;;;;;;5009497;28;20350;-72
2022/06/25 13:50:43;;;;;;;;;;;10.70;99.90;;;;;;5007840;28;19917;-73
2022/06/25 13:53:11;;;;;;;;;;;10.70;99.90;;;;;;5011417;28;20347;-72
2022/06/25 13:55:38;;;;;;;;;;;10.60;99.90;;;;;;5010744;28;19913;-74
2022/06/25 13:58:04;;;;;;;;;;;10.60;99.90;;;;;;5006221;28;19920;-72
2022/06/25 14:00:31;;;;;;;;;;;10.60;99.90;;;;;;5004050;28;20263;-73
2022/06/25 14:02:58;;;;;;;;;;;10.60;99.90;;;;;;5003639;28;20416;-72
2022/06/25 14:05:25;;;;;;;;;;;10.50;99.90;;;;;;5005130;28;20008;-73
2022/06/25 14:07:52;;;;;;;;;;;10.50;99.90;;;;;;5012415;28;19917;-72
2022/06/25 14:10:19;;;;;;;;;;;10.40;99.90;;;;;;5004759;28;19910;-72
2022/06/25 14:12:46;;;;;;;;;;;10.40;99.90;;;;;;5003101;28;20329;-72
2022/06/25 14:15:12;;;;;;;;;;;10.40;99.90;;;;;;5004298;28;20354;-72
2022/06/25 14:17:39;;;;;;;;;;;10.40;99.90;;;;;;5002790;28;19913;-72
2022/06/25 14:20:06;;;;;;;;;;;10.40;99.90;;;;;;4997733;28;19909;-72
2022/06/25 14:22:33;;;;;;;;;;;10.30;99.90;;;;;;4993888;28;19913;-72
2022/06/25 14:27:45;;;;;;;;;;;10.20;99.90;;;;;;4998165;28;20373;-72
2022/06/25 14:30:11;;;;;;;;;;;10.20;99.90;;;;;;4997794;28;19944;-72
2022/06/25 14:32:38;;;;;;;;;;;10.20;99.90;;;;;;4997470;28;20345;-72
2022/06/25 14:35:06;;;;;;;;;;;10.20;99.90;;;;;;4997934;28;20283;-72
2022/06/25 14:43:02;;;;;;;;;;;10.20;99.90;;;;;;4997558;28;19921;-72
2022/06/25 14:45:29;;;;;;;;;;;10.20;99.90;;;;;;4997544;28;20278;-72
2022/06/25 14:47:56;;;;;;;;;;;10.20;99.90;;;;;;4997330;28;19910;-73
2022/06/25 14:50:23;;;;;;;;;;;10.20;99.90;;;;;;4997253;28;19906;-73
2022/06/25 14:52:50;;;;;;;;;;;10.20;99.90;;;;;;4997499;28;19910;-73
2022/06/25 14:55:16;;;;;;;;;;;10.20;99.90;;;;;;4997106;28;19992;-72
2022/06/25 14:57:43;;;;;;;;;;;10.20;99.90;;;;;;4997066;28;19906;-72
2022/06/25 15:00:11;;;;;;;;;;;10.20;99.90;;;;;;4997099;28;19945;-72